sensor_id;sensor_type;location;lat;lon;timestamp;temperature;humidity
24164;DHT22;12319;49.204;8.116;2023-06-10T00:01:27;22.10;51.60
24164;DHT22;12319;49.204;8.116;2023-06-10T00:03:54;22.00;51.40
24164;DHT22;12319;49.204;8.116;2023-06-10T00:06:19;22.00;51.50
24164;DHT22;12319;49.204;8.116;2023-06-10T00:08:47;22.00;51.50
24164;DHT22;12319;49.204;8.116;2023-06-10T00:11:13;22.00;51.50
24164;DHT22;12319;49.204;8.116;2023-06-10T00:13:38;22.00;51.60
24164;DHT22;12319;49.204;8.116;2023-06-10T00:16:05;22.00;51.70
24164;DHT22;12319;49.204;8.116;2023-06-10T00:18:31;21.90;51.60
24164;DHT22;12319;49.204;8.116;2023-06-10T00:20:57;21.90;51.80
24164;DHT22;12319;49.204;8.116;2023-06-10T00:23:29;21.90;51.90
24164;DHT22;12319;49.204;8.116;2023-06-10T00:25:59;21.80;51.80
24164;DHT22;12319;49.204;8.116;2023-06-10T00:28:25;21.90;52.00
24164;DHT22;12319;49.204;8.116;2023-06-10T00:30:51;21.80;52.00
24164;DHT22;12319;49.204;8.116;2023-06-10T00:33:16;21.80;52.00
24164;DHT22;12319;49.204;8.116;2023-06-10T00:35:42;21.80;52.00
24164;DHT22;12319;49.204;8.116;2023-06-10T00:38:07;21.80;52.10
24164;DHT22;12319;49.204;8.116;2023-06-10T00:40:39;21.80;52.10
24164;DHT22;12319;49.204;8.116;2023-06-10T00:43:05;21.70;52.30
24164;DHT22;12319;49.204;8.116;2023-06-10T00:45:31;21.70;52.20
24164;DHT22;12319;49.204;8.116;2023-06-10T00:47:57;21.70;52.30
24164;DHT22;12319;49.204;8.116;2023-06-10T00:50:23;21.70;52.90
24164;DHT22;12319;49.204;8.116;2023-06-10T00:52:48;21.60;52.20
24164;DHT22;12319;49.204;8.116;2023-06-10T00:55:16;21.60;52.40
24164;DHT22;12319;49.204;8.116;2023-06-10T00:57:42;21.60;52.40
24164;DHT22;12319;49.204;8.116;2023-06-10T01:00:10;21.50;52.30
24164;DHT22;12319;49.204;8.116;2023-06-10T01:02:36;21.60;52.40
24164;DHT22;12319;49.204;8.116;2023-06-10T01:05:02;21.50;52.40
24164;DHT22;12319;49.204;8.116;2023-06-10T01:10:33;21.50;52.70
24164;DHT22;12319;49.204;8.116;2023-06-10T01:13:02;21.40;52.80
24164;DHT22;12319;49.204;8.116;2023-06-10T01:15:30;21.40;52.70
24164;DHT22;12319;49.204;8.116;2023-06-10T01:18:00;21.40;52.90
24164;DHT22;12319;49.204;8.116;2023-06-10T01:20:45;21.30;52.80
24164;DHT22;12319;49.204;8.116;2023-06-10T01:23:11;21.20;52.90
24164;DHT22;12319;49.204;8.116;2023-06-10T01:25:39;21.40;53.00
24164;DHT22;12319;49.204;8.116;2023-06-10T01:31:18;21.20;53.30
24164;DHT22;12319;49.204;8.116;2023-06-10T01:33:51;21.20;53.00
24164;DHT22;12319;49.204;8.116;2023-06-10T01:36:18;21.10;53.00
24164;DHT22;12319;49.204;8.116;2023-06-10T01:38:45;21.10;53.10
24164;DHT22;12319;49.204;8.116;2023-06-10T01:41:17;21.10;53.10
24164;DHT22;12319;49.204;8.116;2023-06-10T01:43:44;21.00;53.10
24164;DHT22;12319;49.204;8.116;2023-06-10T01:46:10;21.00;53.10
24164;DHT22;12319;49.204;8.116;2023-06-10T01:48:37;21.00;53.20
24164;DHT22;12319;49.204;8.116;2023-06-10T01:51:04;21.00;53.30
24164;DHT22;12319;49.204;8.116;2023-06-10T01:53:29;20.90;53.20
24164;DHT22;12319;49.204;8.116;2023-06-10T01:55:55;20.90;53.30
24164;DHT22;12319;49.204;8.116;2023-06-10T01:58:20;20.90;53.50
24164;DHT22;12319;49.204;8.116;2023-06-10T02:00:46;20.90;53.50
24164;DHT22;12319;49.204;8.116;2023-06-10T02:03:11;20.80;53.40
24164;DHT22;12319;49.204;8.116;2023-06-10T02:05:37;20.90;53.60
24164;DHT22;12319;49.204;8.116;2023-06-10T02:08:03;20.80;53.80
24164;DHT22;12319;49.204;8.116;2023-06-10T02:10:29;20.80;53.70
24164;DHT22;12319;49.204;8.116;2023-06-10T02:12:54;20.80;53.70
24164;DHT22;12319;49.204;8.116;2023-06-10T02:15:20;20.70;53.60
24164;DHT22;12319;49.204;8.116;2023-06-10T02:17:46;20.70;53.70
24164;DHT22;12319;49.204;8.116;2023-06-10T02:20:11;20.70;53.80
24164;DHT22;12319;49.204;8.116;2023-06-10T02:22:39;20.70;54.10
24164;DHT22;12319;49.204;8.116;2023-06-10T02:25:05;20.70;53.90
24164;DHT22;12319;49.204;8.116;2023-06-10T02:27:31;20.60;54.00
24164;DHT22;12319;49.204;8.116;2023-06-10T02:29:57;20.60;53.90
24164;DHT22;12319;49.204;8.116;2023-06-10T02:32:23;20.60;54.00
24164;DHT22;12319;49.204;8.116;2023-06-10T02:34:49;20.60;54.00
24164;DHT22;12319;49.204;8.116;2023-06-10T02:37:15;20.60;53.90
24164;DHT22;12319;49.204;8.116;2023-06-10T02:39:41;20.60;53.90
24164;DHT22;12319;49.204;8.116;2023-06-10T02:42:07;20.50;53.90
24164;DHT22;12319;49.204;8.116;2023-06-10T02:44:33;20.50;53.90
24164;DHT22;12319;49.204;8.116;2023-06-10T02:46:59;20.50;54.10
24164;DHT22;12319;49.204;8.116;2023-06-10T02:49:25;20.50;54.10
24164;DHT22;12319;49.204;8.116;2023-06-10T02:51:53;20.40;54.10
24164;DHT22;12319;49.204;8.116;2023-06-10T02:54:19;20.40;54.10
24164;DHT22;12319;49.204;8.116;2023-06-10T02:56:45;20.40;54.20
24164;DHT22;12319;49.204;8.116;2023-06-10T02:59:13;20.40;54.40
24164;DHT22;12319;49.204;8.116;2023-06-10T03:01:39;20.30;54.30
24164;DHT22;12319;49.204;8.116;2023-06-10T03:04:05;20.30;54.40
24164;DHT22;12319;49.204;8.116;2023-06-10T03:06:31;20.30;54.50
24164;DHT22;12319;49.204;8.116;2023-06-10T03:08:59;20.20;54.60
24164;DHT22;12319;49.204;8.116;2023-06-10T03:11:25;20.20;54.60
24164;DHT22;12319;49.204;8.116;2023-06-10T03:13:51;20.20;54.70
24164;DHT22;12319;49.204;8.116;2023-06-10T03:16:17;20.20;54.80
24164;DHT22;12319;49.204;8.116;2023-06-10T03:18:43;20.20;54.70
24164;DHT22;12319;49.204;8.116;2023-06-10T03:21:09;20.10;54.80
24164;DHT22;12319;49.204;8.116;2023-06-10T03:23:35;20.10;54.80
24164;DHT22;12319;49.204;8.116;2023-06-10T03:26:01;20.10;54.80
24164;DHT22;12319;49.204;8.116;2023-06-10T03:28:27;20.10;54.90
24164;DHT22;12319;49.204;8.116;2023-06-10T03:30:52;20.10;55.10
24164;DHT22;12319;49.204;8.116;2023-06-10T03:33:18;20.10;55.00
24164;DHT22;12319;49.204;8.116;2023-06-10T03:35:43;20.10;54.80
24164;DHT22;12319;49.204;8.116;2023-06-10T03:38:09;20.20;55.00
24164;DHT22;12319;49.204;8.116;2023-06-10T03:40:35;20.10;55.00
24164;DHT22;12319;49.204;8.116;2023-06-10T03:43:00;20.20;55.00
24164;DHT22;12319;49.204;8.116;2023-06-10T03:45:26;20.20;55.00
24164;DHT22;12319;49.204;8.116;2023-06-10T03:47:53;20.20;55.00
24164;DHT22;12319;49.204;8.116;2023-06-10T03:50:19;20.20;55.00
24164;DHT22;12319;49.204;8.116;2023-06-10T03:52:45;20.30;55.10
24164;DHT22;12319;49.204;8.116;2023-06-10T03:55:12;20.20;55.10
24164;DHT22;12319;49.204;8.116;2023-06-10T03:57:39;20.30;55.30
24164;DHT22;12319;49.204;8.116;2023-06-10T04:00:05;20.20;55.20
24164;DHT22;12319;49.204;8.116;2023-06-10T04:02:36;20.30;55.20
24164;DHT22;12319;49.204;8.116;2023-06-10T04:05:02;20.30;55.30
24164;DHT22;12319;49.204;8.116;2023-06-10T04:07:27;20.30;55.40
24164;DHT22;12319;49.204;8.116;2023-06-10T04:09:54;20.40;55.40
24164;DHT22;12319;49.204;8.116;2023-06-10T04:12:19;20.40;55.40
24164;DHT22;12319;49.204;8.116;2023-06-10T04:14:45;20.40;55.40
24164;DHT22;12319;49.204;8.116;2023-06-10T04:17:10;20.50;55.50
24164;DHT22;12319;49.204;8.116;2023-06-10T04:19:36;20.40;55.50
24164;DHT22;12319;49.204;8.116;2023-06-10T04:22:01;20.50;55.60
24164;DHT22;12319;49.204;8.116;2023-06-10T04:24:30;20.50;55.50
24164;DHT22;12319;49.204;8.116;2023-06-10T04:26:56;20.60;55.80
24164;DHT22;12319;49.204;8.116;2023-06-10T04:29:22;20.60;55.70
24164;DHT22;12319;49.204;8.116;2023-06-10T04:31:47;20.70;55.80
24164;DHT22;12319;49.204;8.116;2023-06-10T04:34:14;20.70;55.80
24164;DHT22;12319;49.204;8.116;2023-06-10T04:36:39;20.80;55.90
24164;DHT22;12319;49.204;8.116;2023-06-10T04:39:05;20.80;55.90
24164;DHT22;12319;49.204;8.116;2023-06-10T04:41:31;20.90;55.90
24164;DHT22;12319;49.204;8.116;2023-06-10T04:43:56;20.90;55.90
24164;DHT22;12319;49.204;8.116;2023-06-10T04:46:23;21.10;56.00
24164;DHT22;12319;49.204;8.116;2023-06-10T04:48:49;21.00;55.90
24164;DHT22;12319;49.204;8.116;2023-06-10T04:51:15;21.10;56.60
24164;DHT22;12319;49.204;8.116;2023-06-10T04:53:40;21.10;55.80
24164;DHT22;12319;49.204;8.116;2023-06-10T04:56:07;21.10;55.70
24164;DHT22;12319;49.204;8.116;2023-06-10T04:58:33;21.30;55.90
24164;DHT22;12319;49.204;8.116;2023-06-10T05:00:58;21.40;55.90
24164;DHT22;12319;49.204;8.116;2023-06-10T05:03:25;21.50;55.90
24164;DHT22;12319;49.204;8.116;2023-06-10T05:05:51;21.50;55.90
24164;DHT22;12319;49.204;8.116;2023-06-10T05:08:16;21.60;55.80
24164;DHT22;12319;49.204;8.116;2023-06-10T05:10:42;21.60;55.80
24164;DHT22;12319;49.204;8.116;2023-06-10T05:13:07;21.70;55.80
24164;DHT22;12319;49.204;8.116;2023-06-10T05:15:33;21.80;55.80
24164;DHT22;12319;49.204;8.116;2023-06-10T05:17:58;21.90;55.80
24164;DHT22;12319;49.204;8.116;2023-06-10T05:20:25;22.00;55.90
24164;DHT22;12319;49.204;8.116;2023-06-10T05:22:51;22.10;55.70
24164;DHT22;12319;49.204;8.116;2023-06-10T05:25:16;22.10;55.60
24164;DHT22;12319;49.204;8.116;2023-06-10T05:27:42;22.30;55.50
24164;DHT22;12319;49.204;8.116;2023-06-10T05:30:09;22.40;55.60
24164;DHT22;12319;49.204;8.116;2023-06-10T05:32:35;22.60;55.40
24164;DHT22;12319;49.204;8.116;2023-06-10T05:35:01;22.70;55.30
24164;DHT22;12319;49.204;8.116;2023-06-10T05:37:27;22.80;55.00
24164;DHT22;12319;49.204;8.116;2023-06-10T05:39:53;23.00;55.00
24164;DHT22;12319;49.204;8.116;2023-06-10T05:42:18;23.10;54.90
24164;DHT22;12319;49.204;8.116;2023-06-10T05:44:44;23.30;54.90
24164;DHT22;12319;49.204;8.116;2023-06-10T05:47:09;23.70;55.10
24164;DHT22;12319;49.204;8.116;2023-06-10T05:49:35;24.90;55.80
24164;DHT22;12319;49.204;8.116;2023-06-10T05:52:00;26.80;54.60
24164;DHT22;12319;49.204;8.116;2023-06-10T05:54:26;28.90;51.90
24164;DHT22;12319;49.204;8.116;2023-06-10T05:56:52;31.00;49.90
24164;DHT22;12319;49.204;8.116;2023-06-10T05:59:17;32.80;47.90
24164;DHT22;12319;49.204;8.116;2023-06-10T06:01:43;34.40;45.90
24164;DHT22;12319;49.204;8.116;2023-06-10T06:04:08;35.80;44.50
24164;DHT22;12319;49.204;8.116;2023-06-10T06:06:35;37.00;42.80
24164;DHT22;12319;49.204;8.116;2023-06-10T06:09:00;38.00;41.30
24164;DHT22;12319;49.204;8.116;2023-06-10T06:11:26;38.80;40.50
24164;DHT22;12319;49.204;8.116;2023-06-10T06:13:51;39.60;39.90
24164;DHT22;12319;49.204;8.116;2023-06-10T06:16:17;40.20;39.20
24164;DHT22;12319;49.204;8.116;2023-06-10T06:18:43;40.80;38.40
24164;DHT22;12319;49.204;8.116;2023-06-10T06:21:09;41.30;37.50
24164;DHT22;12319;49.204;8.116;2023-06-10T06:23:35;41.80;37.00
24164;DHT22;12319;49.204;8.116;2023-06-10T06:26:00;42.20;36.30
24164;DHT22;12319;49.204;8.116;2023-06-10T06:28:26;42.50;36.00
24164;DHT22;12319;49.204;8.116;2023-06-10T06:30:55;42.80;35.30
24164;DHT22;12319;49.204;8.116;2023-06-10T06:33:21;43.10;35.00
24164;DHT22;12319;49.204;8.116;2023-06-10T06:35:46;43.50;34.80
24164;DHT22;12319;49.204;8.116;2023-06-10T06:38:12;43.90;34.40
24164;DHT22;12319;49.204;8.116;2023-06-10T06:40:37;44.30;33.80
24164;DHT22;12319;49.204;8.116;2023-06-10T06:43:03;44.60;31.60
24164;DHT22;12319;49.204;8.116;2023-06-10T06:45:28;44.80;32.70
24164;DHT22;12319;49.204;8.116;2023-06-10T06:47:54;45.00;32.40
24164;DHT22;12319;49.204;8.116;2023-06-10T06:50:21;45.10;32.10
24164;DHT22;12319;49.204;8.116;2023-06-10T06:52:46;45.30;31.70
24164;DHT22;12319;49.204;8.116;2023-06-10T06:55:12;45.50;31.70
24164;DHT22;12319;49.204;8.116;2023-06-10T06:57:37;45.60;31.00
24164;DHT22;12319;49.204;8.116;2023-06-10T07:00:03;45.90;31.10
24164;DHT22;12319;49.204;8.116;2023-06-10T07:02:30;46.10;30.70
24164;DHT22;12319;49.204;8.116;2023-06-10T07:04:57;46.50;30.60
24164;DHT22;12319;49.204;8.116;2023-06-10T07:07:24;46.70;30.50
24164;DHT22;12319;49.204;8.116;2023-06-10T07:09:49;46.80;29.90
24164;DHT22;12319;49.204;8.116;2023-06-10T07:12:15;46.80;29.80
24164;DHT22;12319;49.204;8.116;2023-06-10T07:14:41;46.80;29.40
24164;DHT22;12319;49.204;8.116;2023-06-10T07:17:06;46.80;29.60
24164;DHT22;12319;49.204;8.116;2023-06-10T07:19:32;46.80;29.70
24164;DHT22;12319;49.204;8.116;2023-06-10T07:21:57;46.80;29.20
24164;DHT22;12319;49.204;8.116;2023-06-10T07:24:23;46.90;29.30
24164;DHT22;12319;49.204;8.116;2023-06-10T07:26:48;47.10;29.50
24164;DHT22;12319;49.204;8.116;2023-06-10T07:29:14;47.30;29.50
24164;DHT22;12319;49.204;8.116;2023-06-10T07:31:41;47.40;29.00
24164;DHT22;12319;49.204;8.116;2023-06-10T07:34:06;47.50;28.30
24164;DHT22;12319;49.204;8.116;2023-06-10T07:36:32;47.50;28.40
24164;DHT22;12319;49.204;8.116;2023-06-10T07:38:57;47.50;28.70
24164;DHT22;12319;49.204;8.116;2023-06-10T07:41:24;47.30;28.60
24164;DHT22;12319;49.204;8.116;2023-06-10T07:43:51;47.10;28.50
24164;DHT22;12319;49.204;8.116;2023-06-10T07:46:20;47.10;28.50
24164;DHT22;12319;49.204;8.116;2023-06-10T07:48:47;47.30;28.60
24164;DHT22;12319;49.204;8.116;2023-06-10T07:51:12;47.40;28.60
24164;DHT22;12319;49.204;8.116;2023-06-10T07:53:38;47.60;28.40
24164;DHT22;12319;49.204;8.116;2023-06-10T07:56:03;47.70;28.20
24164;DHT22;12319;49.204;8.116;2023-06-10T07:58:29;47.70;28.10
24164;DHT22;12319;49.204;8.116;2023-06-10T08:00:54;47.60;27.90
24164;DHT22;12319;49.204;8.116;2023-06-10T08:03:20;47.40;27.80
24164;DHT22;12319;49.204;8.116;2023-06-10T08:05:45;47.00;27.80
24164;DHT22;12319;49.204;8.116;2023-06-10T08:08:12;46.80;27.90
24164;DHT22;12319;49.204;8.116;2023-06-10T08:10:38;46.80;27.80
24164;DHT22;12319;49.204;8.116;2023-06-10T08:13:04;46.70;28.40
24164;DHT22;12319;49.204;8.116;2023-06-10T08:15:29;46.50;27.70
24164;DHT22;12319;49.204;8.116;2023-06-10T08:17:55;46.10;27.70
24164;DHT22;12319;49.204;8.116;2023-06-10T08:20:22;45.80;27.50
24164;DHT22;12319;49.204;8.116;2023-06-10T08:22:47;45.50;27.50
24164;DHT22;12319;49.204;8.116;2023-06-10T08:25:13;45.20;27.60
24164;DHT22;12319;49.204;8.116;2023-06-10T08:27:38;45.00;27.70
24164;DHT22;12319;49.204;8.116;2023-06-10T08:30:05;44.20;27.60
24164;DHT22;12319;49.204;8.116;2023-06-10T08:32:30;43.00;27.80
24164;DHT22;12319;49.204;8.116;2023-06-10T08:34:56;41.70;28.40
24164;DHT22;12319;49.204;8.116;2023-06-10T08:37:21;40.20;29.10
24164;DHT22;12319;49.204;8.116;2023-06-10T08:39:47;38.80;29.90
24164;DHT22;12319;49.204;8.116;2023-06-10T08:43:00;37.60;30.60
24164;DHT22;12319;49.204;8.116;2023-06-10T08:45:29;36.40;32.10
24164;DHT22;12319;49.204;8.116;2023-06-10T08:47:57;35.50;32.70
24164;DHT22;12319;49.204;8.116;2023-06-10T08:50:23;35.00;33.50
24164;DHT22;12319;49.204;8.116;2023-06-10T08:52:50;34.60;34.10
24164;DHT22;12319;49.204;8.116;2023-06-10T08:55:23;34.20;34.50
24164;DHT22;12319;49.204;8.116;2023-06-10T08:57:52;33.90;35.10
24164;DHT22;12319;49.204;8.116;2023-06-10T09:00:18;33.60;35.50
24164;DHT22;12319;49.204;8.116;2023-06-10T09:02:44;33.50;35.90
24164;DHT22;12319;49.204;8.116;2023-06-10T09:05:10;33.40;36.00
24164;DHT22;12319;49.204;8.116;2023-06-10T09:07:36;33.20;36.30
24164;DHT22;12319;49.204;8.116;2023-06-10T09:10:03;33.00;36.40
24164;DHT22;12319;49.204;8.116;2023-06-10T09:12:32;32.80;36.70
24164;DHT22;12319;49.204;8.116;2023-06-10T09:14:58;32.70;37.10
24164;DHT22;12319;49.204;8.116;2023-06-10T09:17:24;32.50;37.50
24164;DHT22;12319;49.204;8.116;2023-06-10T09:19:50;32.30;37.30
24164;DHT22;12319;49.204;8.116;2023-06-10T09:22:19;32.20;37.80
24164;DHT22;12319;49.204;8.116;2023-06-10T09:24:46;32.20;38.00
24164;DHT22;12319;49.204;8.116;2023-06-10T09:27:11;32.10;38.20
24164;DHT22;12319;49.204;8.116;2023-06-10T09:30:03;32.00;38.20
24164;DHT22;12319;49.204;8.116;2023-06-10T09:32:29;32.10;38.70
24164;DHT22;12319;49.204;8.116;2023-06-10T09:34:55;32.00;38.60
24164;DHT22;12319;49.204;8.116;2023-06-10T09:37:25;32.00;38.70
24164;DHT22;12319;49.204;8.116;2023-06-10T09:40:08;32.00;38.70
24164;DHT22;12319;49.204;8.116;2023-06-10T09:42:37;32.00;39.00
24164;DHT22;12319;49.204;8.116;2023-06-10T09:45:04;32.10;38.80
24164;DHT22;12319;49.204;8.116;2023-06-10T09:47:30;32.10;38.90
24164;DHT22;12319;49.204;8.116;2023-06-10T09:49:56;32.10;39.60
24164;DHT22;12319;49.204;8.116;2023-06-10T09:52:26;32.00;39.00
24164;DHT22;12319;49.204;8.116;2023-06-10T09:54:53;32.00;39.10
24164;DHT22;12319;49.204;8.116;2023-06-10T09:57:22;31.90;39.10
24164;DHT22;12319;49.204;8.116;2023-06-10T09:59:48;31.80;39.50
24164;DHT22;12319;49.204;8.116;2023-06-10T10:02:17;31.70;39.40
24164;DHT22;12319;49.204;8.116;2023-06-10T10:04:44;31.80;39.50
24164;DHT22;12319;49.204;8.116;2023-06-10T10:07:11;31.60;39.50
24164;DHT22;12319;49.204;8.116;2023-06-10T10:09:38;31.60;39.60
24164;DHT22;12319;49.204;8.116;2023-06-10T10:12:10;31.50;39.50
24164;DHT22;12319;49.204;8.116;2023-06-10T10:14:37;31.50;39.70
24164;DHT22;12319;49.204;8.116;2023-06-10T10:17:10;31.50;39.60
24164;DHT22;12319;49.204;8.116;2023-06-10T10:19:46;31.50;39.50
24164;DHT22;12319;49.204;8.116;2023-06-10T10:22:18;31.60;39.40
24164;DHT22;12319;49.204;8.116;2023-06-10T10:24:53;31.60;39.40
24164;DHT22;12319;49.204;8.116;2023-06-10T10:27:28;31.60;39.40
24164;DHT22;12319;49.204;8.116;2023-06-10T10:29:58;31.60;39.30
24164;DHT22;12319;49.204;8.116;2023-06-10T10:32:30;31.70;39.20
24164;DHT22;12319;49.204;8.116;2023-06-10T10:35:20;31.60;39.10
24164;DHT22;12319;49.204;8.116;2023-06-10T10:37:54;31.60;39.20
24164;DHT22;12319;49.204;8.116;2023-06-10T10:40:21;31.60;39.30
24164;DHT22;12319;49.204;8.116;2023-06-10T10:42:51;31.50;39.40
24164;DHT22;12319;49.204;8.116;2023-06-10T10:45:17;31.50;39.50
24164;DHT22;12319;49.204;8.116;2023-06-10T10:47:45;31.60;39.50
24164;DHT22;12319;49.204;8.116;2023-06-10T10:50:16;31.60;39.00
24164;DHT22;12319;49.204;8.116;2023-06-10T10:55:25;31.60;39.30
24164;DHT22;12319;49.204;8.116;2023-06-10T10:57:55;31.70;39.00
24164;DHT22;12319;49.204;8.116;2023-06-10T11:00:31;31.70;39.10
24164;DHT22;12319;49.204;8.116;2023-06-10T11:05:42;31.80;39.10
24164;DHT22;12319;49.204;8.116;2023-06-10T11:08:14;31.80;38.90
24164;DHT22;12319;49.204;8.116;2023-06-10T11:10:51;31.80;39.00
24164;DHT22;12319;49.204;8.116;2023-06-10T11:13:20;31.80;39.00
24164;DHT22;12319;49.204;8.116;2023-06-10T11:15:51;31.70;39.00
24164;DHT22;12319;49.204;8.116;2023-06-10T11:18:29;31.80;39.00
24164;DHT22;12319;49.204;8.116;2023-06-10T11:21:04;30.90;38.30
24164;DHT22;12319;49.204;8.116;2023-06-10T11:31:28;31.80;39.30
24164;DHT22;12319;49.204;8.116;2023-06-10T11:33:56;31.80;39.50
24164;DHT22;12319;49.204;8.116;2023-06-10T11:36:22;31.90;39.20
24164;DHT22;12319;49.204;8.116;2023-06-10T11:38:49;32.00;39.00
24164;DHT22;12319;49.204;8.116;2023-06-10T11:41:15;32.10;39.20
24164;DHT22;12319;49.204;8.116;2023-06-10T11:43:46;32.10;38.90
24164;DHT22;12319;49.204;8.116;2023-06-10T11:46:13;32.20;38.80
24164;DHT22;12319;49.204;8.116;2023-06-10T11:48:39;32.30;38.90
24164;DHT22;12319;49.204;8.116;2023-06-10T11:51:07;32.40;38.50
24164;DHT22;12319;49.204;8.116;2023-06-10T11:53:33;32.70;38.20
24164;DHT22;12319;49.204;8.116;2023-06-10T11:55:59;32.80;37.90
24164;DHT22;12319;49.204;8.116;2023-06-10T11:58:25;32.90;37.80
24164;DHT22;12319;49.204;8.116;2023-06-10T12:00:52;33.10;37.40
24164;DHT22;12319;49.204;8.116;2023-06-10T12:03:19;33.20;37.20
24164;DHT22;12319;49.204;8.116;2023-06-10T12:05:59;33.10;37.40
24164;DHT22;12319;49.204;8.116;2023-06-10T12:08:25;33.00;37.20
24164;DHT22;12319;49.204;8.116;2023-06-10T12:10:50;32.90;37.80
24164;DHT22;12319;49.204;8.116;2023-06-10T12:13:16;32.90;38.00
24164;DHT22;12319;49.204;8.116;2023-06-10T12:15:44;32.80;38.20
24164;DHT22;12319;49.204;8.116;2023-06-10T12:18:19;33.00;38.40
24164;DHT22;12319;49.204;8.116;2023-06-10T12:20:45;33.20;37.90
24164;DHT22;12319;49.204;8.116;2023-06-10T12:23:12;33.50;38.10
24164;DHT22;12319;49.204;8.116;2023-06-10T12:25:38;33.80;37.90
24164;DHT22;12319;49.204;8.116;2023-06-10T12:28:05;34.00;37.30
24164;DHT22;12319;49.204;8.116;2023-06-10T12:30:32;34.10;37.30
24164;DHT22;12319;49.204;8.116;2023-06-10T12:32:57;34.00;37.10
24164;DHT22;12319;49.204;8.116;2023-06-10T12:35:27;33.90;36.90
24164;DHT22;12319;49.204;8.116;2023-06-10T12:38:04;33.90;36.90
24164;DHT22;12319;49.204;8.116;2023-06-10T12:40:37;33.70;36.70
24164;DHT22;12319;49.204;8.116;2023-06-10T12:43:03;33.60;36.60
24164;DHT22;12319;49.204;8.116;2023-06-10T12:45:38;33.60;36.20
24164;DHT22;12319;49.204;8.116;2023-06-10T12:48:17;33.40;35.80
24164;DHT22;12319;49.204;8.116;2023-06-10T12:50:43;33.00;35.90
24164;DHT22;12319;49.204;8.116;2023-06-10T12:53:10;33.00;36.30
24164;DHT22;12319;49.204;8.116;2023-06-10T12:55:37;33.10;36.30
24164;DHT22;12319;49.204;8.116;2023-06-10T12:58:03;33.30;36.50
24164;DHT22;12319;49.204;8.116;2023-06-10T13:00:29;33.70;36.50
24164;DHT22;12319;49.204;8.116;2023-06-10T13:03:00;34.10;36.40
24164;DHT22;12319;49.204;8.116;2023-06-10T13:05:27;34.60;36.20
24164;DHT22;12319;49.204;8.116;2023-06-10T13:07:53;35.00;36.00
24164;DHT22;12319;49.204;8.116;2023-06-10T13:10:20;35.30;35.50
24164;DHT22;12319;49.204;8.116;2023-06-10T13:12:46;35.60;35.10
24164;DHT22;12319;49.204;8.116;2023-06-10T13:15:12;35.70;34.30
24164;DHT22;12319;49.204;8.116;2023-06-10T13:17:38;35.90;34.40
24164;DHT22;12319;49.204;8.116;2023-06-10T13:20:06;36.00;34.50
24164;DHT22;12319;49.204;8.116;2023-06-10T13:22:33;36.20;34.60
24164;DHT22;12319;49.204;8.116;2023-06-10T13:25:03;36.50;34.30
24164;DHT22;12319;49.204;8.116;2023-06-10T13:27:29;36.70;34.30
24164;DHT22;12319;49.204;8.116;2023-06-10T13:29:54;36.90;34.30
24164;DHT22;12319;49.204;8.116;2023-06-10T13:32:20;37.10;33.40
24164;DHT22;12319;49.204;8.116;2023-06-10T13:34:46;37.30;33.50
24164;DHT22;12319;49.204;8.116;2023-06-10T13:37:12;37.30;33.30
24164;DHT22;12319;49.204;8.116;2023-06-10T13:39:40;37.10;33.10
24164;DHT22;12319;49.204;8.116;2023-06-10T13:42:06;36.70;33.30
24164;DHT22;12319;49.204;8.116;2023-06-10T13:44:33;36.40;33.50
24164;DHT22;12319;49.204;8.116;2023-06-10T13:47:04;36.40;33.90
24164;DHT22;12319;49.204;8.116;2023-06-10T13:49:30;36.50;33.10
24164;DHT22;12319;49.204;8.116;2023-06-10T13:51:56;36.40;33.30
24164;DHT22;12319;49.204;8.116;2023-06-10T13:54:21;36.20;32.80
24164;DHT22;12319;49.204;8.116;2023-06-10T13:56:47;35.70;33.30
24164;DHT22;12319;49.204;8.116;2023-06-10T13:59:13;35.20;33.40
24164;DHT22;12319;49.204;8.116;2023-06-10T14:01:38;34.70;33.40
24164;DHT22;12319;49.204;8.116;2023-06-10T14:04:05;34.10;33.80
24164;DHT22;12319;49.204;8.116;2023-06-10T14:06:30;33.70;34.10
24164;DHT22;12319;49.204;8.116;2023-06-10T14:08:57;33.30;34.40
24164;DHT22;12319;49.204;8.116;2023-06-10T14:11:23;33.10;34.80
24164;DHT22;12319;49.204;8.116;2023-06-10T14:13:48;33.40;35.00
24164;DHT22;12319;49.204;8.116;2023-06-10T14:16:14;33.80;34.70
24164;DHT22;12319;49.204;8.116;2023-06-10T14:18:40;34.30;34.60
24164;DHT22;12319;49.204;8.116;2023-06-10T14:21:05;34.70;34.40
24164;DHT22;12319;49.204;8.116;2023-06-10T14:23:31;35.20;33.80
24164;DHT22;12319;49.204;8.116;2023-06-10T14:25:56;35.60;33.50
24164;DHT22;12319;49.204;8.116;2023-06-10T14:28:22;35.90;33.00
24164;DHT22;12319;49.204;8.116;2023-06-10T14:30:49;36.10;32.90
24164;DHT22;12319;49.204;8.116;2023-06-10T14:33:14;36.20;32.50
24164;DHT22;12319;49.204;8.116;2023-06-10T14:35:40;35.90;32.40
24164;DHT22;12319;49.204;8.116;2023-06-10T14:38:06;35.70;32.40
24164;DHT22;12319;49.204;8.116;2023-06-10T14:40:31;35.60;32.80
24164;DHT22;12319;49.204;8.116;2023-06-10T14:42:57;35.60;32.30
24164;DHT22;12319;49.204;8.116;2023-06-10T14:45:23;35.60;32.40
24164;DHT22;12319;49.204;8.116;2023-06-10T14:47:49;35.70;32.10
24164;DHT22;12319;49.204;8.116;2023-06-10T14:50:15;35.80;32.20
24164;DHT22;12319;49.204;8.116;2023-06-10T14:52:40;35.90;32.20
24164;DHT22;12319;49.204;8.116;2023-06-10T14:55:06;35.90;31.90
24164;DHT22;12319;49.204;8.116;2023-06-10T14:57:32;35.80;31.50
24164;DHT22;12319;49.204;8.116;2023-06-10T14:59:57;35.70;31.80
24164;DHT22;12319;49.204;8.116;2023-06-10T15:02:23;35.60;31.90
24164;DHT22;12319;49.204;8.116;2023-06-10T15:04:49;35.50;32.10
24164;DHT22;12319;49.204;8.116;2023-06-10T15:07:14;35.30;32.20
24164;DHT22;12319;49.204;8.116;2023-06-10T15:09:41;35.00;32.40
24164;DHT22;12319;49.204;8.116;2023-06-10T15:12:07;34.80;32.60
24164;DHT22;12319;49.204;8.116;2023-06-10T15:14:33;34.50;32.90
24164;DHT22;12319;49.204;8.116;2023-06-10T15:16:59;34.30;33.00
24164;DHT22;12319;49.204;8.116;2023-06-10T15:19:26;34.10;33.10
24164;DHT22;12319;49.204;8.116;2023-06-10T15:21:52;33.90;33.40
24164;DHT22;12319;49.204;8.116;2023-06-10T15:24:18;33.70;33.10
24164;DHT22;12319;49.204;8.116;2023-06-10T15:26:44;33.50;33.40
24164;DHT22;12319;49.204;8.116;2023-06-10T15:29:10;33.30;33.50
24164;DHT22;12319;49.204;8.116;2023-06-10T15:31:35;33.10;34.20
24164;DHT22;12319;49.204;8.116;2023-06-10T15:34:01;32.90;33.90
24164;DHT22;12319;49.204;8.116;2023-06-10T15:36:27;32.70;34.20
24164;DHT22;12319;49.204;8.116;2023-06-10T15:38:53;32.60;34.00
24164;DHT22;12319;49.204;8.116;2023-06-10T15:41:20;32.40;34.10
24164;DHT22;12319;49.204;8.116;2023-06-10T15:43:46;32.30;33.90
24164;DHT22;12319;49.204;8.116;2023-06-10T15:46:12;32.20;34.20
24164;DHT22;12319;49.204;8.116;2023-06-10T15:48:37;32.10;34.50